sensor_id;sensor_type;location;lat;lon;timestamp;P1;durP1;ratioP1;P2;durP2;ratioP2
55312;SDS011;46892;45.668;11.756;2023-05-07T00:00:26;6.07;;;4.77;;
55312;SDS011;46892;45.668;11.756;2023-05-07T00:02:52;6.43;;;4.17;;
55312;SDS011;46892;45.668;11.756;2023-05-07T00:05:17;5.80;;;4.40;;
55312;SDS011;46892;45.668;11.756;2023-05-07T00:07:43;7.30;;;4.37;;
55312;SDS011;46892;45.668;11.756;2023-05-07T00:10:09;5.73;;;4.20;;
55312;SDS011;46892;45.668;11.756;2023-05-07T00:12:37;7.07;;;4.37;;
55312;SDS011;46892;45.668;11.756;2023-05-07T00:15:03;5.57;;;4.30;;
55312;SDS011;46892;45.668;11.756;2023-05-07T00:17:29;5.07;;;4.20;;
55312;SDS011;46892;45.668;11.756;2023-05-07T00:19:55;5.83;;;4.40;;
55312;SDS011;46892;45.668;11.756;2023-05-07T00:22:20;5.80;;;4.40;;
55312;SDS011;46892;45.668;11.756;2023-05-07T00:24:46;7.27;;;4.50;;
55312;SDS011;46892;45.668;11.756;2023-05-07T00:27:12;5.47;;;4.33;;
55312;SDS011;46892;45.668;11.756;2023-05-07T00:29:37;5.57;;;4.07;;
55312;SDS011;46892;45.668;11.756;2023-05-07T00:32:03;7.00;;;4.80;;
55312;SDS011;46892;45.668;11.756;2023-05-07T00:34:30;7.27;;;5.40;;
55312;SDS011;46892;45.668;11.756;2023-05-07T00:36:55;6.77;;;4.53;;
55312;SDS011;46892;45.668;11.756;2023-05-07T00:39:21;9.50;;;5.33;;
55312;SDS011;46892;45.668;11.756;2023-05-07T00:41:46;6.17;;;4.90;;
55312;SDS011;46892;45.668;11.756;2023-05-07T00:44:12;6.00;;;4.67;;
55312;SDS011;46892;45.668;11.756;2023-05-07T00:46:38;6.60;;;5.30;;
55312;SDS011;46892;45.668;11.756;2023-05-07T00:49:04;7.23;;;5.10;;
55312;SDS011;46892;45.668;11.756;2023-05-07T00:51:30;5.83;;;5.03;;
55312;SDS011;46892;45.668;11.756;2023-05-07T00:53:55;6.30;;;5.17;;
55312;SDS011;46892;45.668;11.756;2023-05-07T00:56:21;8.37;;;5.87;;
55312;SDS011;46892;45.668;11.756;2023-05-07T00:58:48;12.23;;;5.27;;
55312;SDS011;46892;45.668;11.756;2023-05-07T01:01:14;6.23;;;5.10;;
55312;SDS011;46892;45.668;11.756;2023-05-07T01:03:42;7.07;;;5.00;;
55312;SDS011;46892;45.668;11.756;2023-05-07T01:06:08;7.20;;;5.23;;
55312;SDS011;46892;45.668;11.756;2023-05-07T01:08:37;8.03;;;5.40;;
55312;SDS011;46892;45.668;11.756;2023-05-07T01:11:07;5.97;;;4.90;;
55312;SDS011;46892;45.668;11.756;2023-05-07T01:13:34;7.50;;;5.00;;
55312;SDS011;46892;45.668;11.756;2023-05-07T01:16:01;6.43;;;4.83;;
55312;SDS011;46892;45.668;11.756;2023-05-07T01:18:28;9.37;;;5.33;;
55312;SDS011;46892;45.668;11.756;2023-05-07T01:20:55;5.50;;;4.50;;
55312;SDS011;46892;45.668;11.756;2023-05-07T01:23:23;6.40;;;4.80;;
55312;SDS011;46892;45.668;11.756;2023-05-07T01:25:51;7.90;;;5.10;;
55312;SDS011;46892;45.668;11.756;2023-05-07T01:28:19;7.93;;;5.63;;
55312;SDS011;46892;45.668;11.756;2023-05-07T01:30:47;9.07;;;5.13;;
55312;SDS011;46892;45.668;11.756;2023-05-07T01:33:19;8.63;;;6.13;;
55312;SDS011;46892;45.668;11.756;2023-05-07T01:35:50;6.70;;;5.30;;
55312;SDS011;46892;45.668;11.756;2023-05-07T01:38:18;7.27;;;5.37;;
55312;SDS011;46892;45.668;11.756;2023-05-07T01:40:45;7.10;;;5.10;;
55312;SDS011;46892;45.668;11.756;2023-05-07T01:43:11;8.00;;;5.37;;
55312;SDS011;46892;45.668;11.756;2023-05-07T01:45:37;6.57;;;5.10;;
55312;SDS011;46892;45.668;11.756;2023-05-07T01:48:03;10.00;;;5.63;;
55312;SDS011;46892;45.668;11.756;2023-05-07T01:50:30;6.30;;;4.83;;
55312;SDS011;46892;45.668;11.756;2023-05-07T01:52:57;6.50;;;5.20;;
55312;SDS011;46892;45.668;11.756;2023-05-07T01:55:22;7.07;;;5.47;;
55312;SDS011;46892;45.668;11.756;2023-05-07T01:57:48;7.17;;;4.87;;
55312;SDS011;46892;45.668;11.756;2023-05-07T02:00:14;8.17;;;5.73;;
55312;SDS011;46892;45.668;11.756;2023-05-07T02:02:40;7.97;;;6.20;;
55312;SDS011;46892;45.668;11.756;2023-05-07T02:05:06;7.70;;;6.50;;
55312;SDS011;46892;45.668;11.756;2023-05-07T02:07:32;10.37;;;7.87;;
55312;SDS011;46892;45.668;11.756;2023-05-07T02:09:57;9.67;;;7.10;;
55312;SDS011;46892;45.668;11.756;2023-05-07T02:12:23;8.77;;;6.70;;
55312;SDS011;46892;45.668;11.756;2023-05-07T02:14:49;7.33;;;6.07;;
55312;SDS011;46892;45.668;11.756;2023-05-07T02:17:15;8.67;;;7.00;;
55312;SDS011;46892;45.668;11.756;2023-05-07T02:19:40;10.20;;;5.80;;
55312;SDS011;46892;45.668;11.756;2023-05-07T02:22:06;9.97;;;7.17;;
55312;SDS011;46892;45.668;11.756;2023-05-07T02:24:32;10.20;;;8.23;;
55312;SDS011;46892;45.668;11.756;2023-05-07T02:26:58;9.40;;;7.57;;
55312;SDS011;46892;45.668;11.756;2023-05-07T02:29:23;10.90;;;7.03;;
55312;SDS011;46892;45.668;11.756;2023-05-07T02:31:49;10.17;;;8.00;;
55312;SDS011;46892;45.668;11.756;2023-05-07T02:34:16;11.43;;;8.97;;
55312;SDS011;46892;45.668;11.756;2023-05-07T02:36:42;8.77;;;7.87;;
55312;SDS011;46892;45.668;11.756;2023-05-07T02:39:08;12.40;;;8.43;;
55312;SDS011;46892;45.668;11.756;2023-05-07T02:41:33;10.50;;;8.13;;
55312;SDS011;46892;45.668;11.756;2023-05-07T02:43:59;13.20;;;8.63;;
55312;SDS011;46892;45.668;11.756;2023-05-07T02:46:25;10.53;;;8.57;;
55312;SDS011;46892;45.668;11.756;2023-05-07T02:48:51;8.60;;;7.00;;
55312;SDS011;46892;45.668;11.756;2023-05-07T02:51:19;8.93;;;6.87;;
55312;SDS011;46892;45.668;11.756;2023-05-07T02:53:46;10.05;;;7.18;;
55312;SDS011;46892;45.668;11.756;2023-05-07T02:56:12;9.43;;;7.40;;
55312;SDS011;46892;45.668;11.756;2023-05-07T02:58:38;8.07;;;6.33;;
55312;SDS011;46892;45.668;11.756;2023-05-07T03:01:07;9.37;;;7.13;;
55312;SDS011;46892;45.668;11.756;2023-05-07T03:03:33;8.50;;;7.37;;
55312;SDS011;46892;45.668;11.756;2023-05-07T03:05:59;9.77;;;7.77;;
55312;SDS011;46892;45.668;11.756;2023-05-07T03:08:25;8.13;;;7.33;;
55312;SDS011;46892;45.668;11.756;2023-05-07T03:10:51;10.57;;;7.33;;
55312;SDS011;46892;45.668;11.756;2023-05-07T03:13:17;10.07;;;8.00;;
55312;SDS011;46892;45.668;11.756;2023-05-07T03:15:42;9.13;;;7.73;;
55312;SDS011;46892;45.668;11.756;2023-05-07T03:18:08;9.27;;;7.47;;
55312;SDS011;46892;45.668;11.756;2023-05-07T03:20:34;11.33;;;8.37;;
55312;SDS011;46892;45.668;11.756;2023-05-07T03:23:01;8.93;;;8.03;;
55312;SDS011;46892;45.668;11.756;2023-05-07T03:25:27;10.53;;;8.03;;
55312;SDS011;46892;45.668;11.756;2023-05-07T03:27:53;10.00;;;7.83;;
55312;SDS011;46892;45.668;11.756;2023-05-07T03:30:18;7.97;;;7.03;;
55312;SDS011;46892;45.668;11.756;2023-05-07T03:32:45;15.10;;;8.10;;
55312;SDS011;46892;45.668;11.756;2023-05-07T03:35:10;9.47;;;7.37;;
55312;SDS011;46892;45.668;11.756;2023-05-07T03:37:37;9.17;;;7.17;;
55312;SDS011;46892;45.668;11.756;2023-05-07T03:40:03;9.90;;;8.13;;
55312;SDS011;46892;45.668;11.756;2023-05-07T03:42:29;10.20;;;7.80;;
55312;SDS011;46892;45.668;11.756;2023-05-07T03:44:55;10.20;;;8.40;;
55312;SDS011;46892;45.668;11.756;2023-05-07T03:47:21;10.50;;;9.13;;
55312;SDS011;46892;45.668;11.756;2023-05-07T03:49:46;11.60;;;10.10;;
55312;SDS011;46892;45.668;11.756;2023-05-07T03:52:13;10.37;;;8.97;;
55312;SDS011;46892;45.668;11.756;2023-05-07T03:54:39;11.43;;;8.73;;
55312;SDS011;46892;45.668;11.756;2023-05-07T03:57:05;10.00;;;9.00;;
55312;SDS011;46892;45.668;11.756;2023-05-07T03:59:31;11.07;;;9.10;;
55312;SDS011;46892;45.668;11.756;2023-05-07T04:01:56;11.57;;;10.00;;
55312;SDS011;46892;45.668;11.756;2023-05-07T04:04:23;10.83;;;9.57;;
55312;SDS011;46892;45.668;11.756;2023-05-07T04:06:48;15.37;;;10.07;;
55312;SDS011;46892;45.668;11.756;2023-05-07T04:09:14;13.33;;;9.70;;
55312;SDS011;46892;45.668;11.756;2023-05-07T04:11:40;10.83;;;9.47;;
55312;SDS011;46892;45.668;11.756;2023-05-07T04:14:06;10.23;;;9.13;;
55312;SDS011;46892;45.668;11.756;2023-05-07T04:16:31;12.07;;;9.30;;
55312;SDS011;46892;45.668;11.756;2023-05-07T04:18:57;12.90;;;9.10;;
55312;SDS011;46892;45.668;11.756;2023-05-07T04:21:22;9.90;;;8.90;;
55312;SDS011;46892;45.668;11.756;2023-05-07T04:23:48;10.70;;;9.60;;
55312;SDS011;46892;45.668;11.756;2023-05-07T04:26:14;11.40;;;9.80;;
55312;SDS011;46892;45.668;11.756;2023-05-07T04:28:41;11.63;;;10.43;;
55312;SDS011;46892;45.668;11.756;2023-05-07T04:31:08;10.23;;;8.07;;
55312;SDS011;46892;45.668;11.756;2023-05-07T04:33:33;9.00;;;7.67;;
55312;SDS011;46892;45.668;11.756;2023-05-07T04:36:03;9.97;;;8.93;;
55312;SDS011;46892;45.668;11.756;2023-05-07T04:38:29;10.13;;;9.02;;
55312;SDS011;46892;45.668;11.756;2023-05-07T04:40:56;10.30;;;9.20;;
55312;SDS011;46892;45.668;11.756;2023-05-07T04:43:22;10.17;;;8.30;;
55312;SDS011;46892;45.668;11.756;2023-05-07T04:45:49;11.57;;;8.63;;
55312;SDS011;46892;45.668;11.756;2023-05-07T04:48:16;10.70;;;9.43;;
55312;SDS011;46892;45.668;11.756;2023-05-07T04:50:44;9.20;;;8.30;;
55312;SDS011;46892;45.668;11.756;2023-05-07T04:53:12;11.20;;;8.80;;
55312;SDS011;46892;45.668;11.756;2023-05-07T04:55:37;10.63;;;9.03;;
55312;SDS011;46892;45.668;11.756;2023-05-07T04:58:03;9.63;;;8.63;;
55312;SDS011;46892;45.668;11.756;2023-05-07T05:00:29;11.13;;;8.83;;
55312;SDS011;46892;45.668;11.756;2023-05-07T05:02:55;9.57;;;8.53;;
55312;SDS011;46892;45.668;11.756;2023-05-07T05:05:21;10.50;;;8.87;;
55312;SDS011;46892;45.668;11.756;2023-05-07T05:07:46;10.43;;;9.33;;
55312;SDS011;46892;45.668;11.756;2023-05-07T05:10:12;9.83;;;7.97;;
55312;SDS011;46892;45.668;11.756;2023-05-07T05:12:38;10.73;;;8.90;;
55312;SDS011;46892;45.668;11.756;2023-05-07T05:15:04;9.67;;;8.03;;
55312;SDS011;46892;45.668;11.756;2023-05-07T05:17:30;9.90;;;8.90;;
55312;SDS011;46892;45.668;11.756;2023-05-07T05:19:56;11.30;;;9.47;;
55312;SDS011;46892;45.668;11.756;2023-05-07T05:22:21;9.77;;;8.67;;
55312;SDS011;46892;45.668;11.756;2023-05-07T05:24:47;10.77;;;8.60;;
55312;SDS011;46892;45.668;11.756;2023-05-07T05:27:13;9.63;;;8.67;;
55312;SDS011;46892;45.668;11.756;2023-05-07T05:29:38;9.73;;;8.00;;
55312;SDS011;46892;45.668;11.756;2023-05-07T05:32:04;10.70;;;8.57;;
55312;SDS011;46892;45.668;11.756;2023-05-07T05:34:30;13.33;;;8.40;;
55312;SDS011;46892;45.668;11.756;2023-05-07T05:36:55;9.83;;;8.83;;
55312;SDS011;46892;45.668;11.756;2023-05-07T05:39:21;9.87;;;8.87;;
55312;SDS011;46892;45.668;11.756;2023-05-07T05:41:48;10.70;;;8.90;;
55312;SDS011;46892;45.668;11.756;2023-05-07T05:44:13;11.87;;;10.00;;
55312;SDS011;46892;45.668;11.756;2023-05-07T05:46:39;10.93;;;8.80;;
55312;SDS011;46892;45.668;11.756;2023-05-07T05:49:05;11.50;;;9.67;;
55312;SDS011;46892;45.668;11.756;2023-05-07T05:51:30;13.97;;;10.83;;
55312;SDS011;46892;45.668;11.756;2023-05-07T05:53:56;13.70;;;12.13;;
55312;SDS011;46892;45.668;11.756;2023-05-07T05:56:22;14.00;;;12.40;;
55312;SDS011;46892;45.668;11.756;2023-05-07T05:58:47;13.37;;;11.93;;
55312;SDS011;46892;45.668;11.756;2023-05-07T06:01:13;13.57;;;11.70;;
55312;SDS011;46892;45.668;11.756;2023-05-07T06:03:39;13.63;;;11.93;;
55312;SDS011;46892;45.668;11.756;2023-05-07T06:06:05;13.10;;;11.07;;
55312;SDS011;46892;45.668;11.756;2023-05-07T06:08:30;10.33;;;8.80;;
55312;SDS011;46892;45.668;11.756;2023-05-07T06:10:56;11.73;;;9.37;;
55312;SDS011;46892;45.668;11.756;2023-05-07T06:13:22;9.13;;;7.60;;
55312;SDS011;46892;45.668;11.756;2023-05-07T06:15:48;8.77;;;6.47;;
55312;SDS011;46892;45.668;11.756;2023-05-07T06:18:14;8.10;;;6.70;;
55312;SDS011;46892;45.668;11.756;2023-05-07T06:20:40;6.73;;;5.03;;
55312;SDS011;46892;45.668;11.756;2023-05-07T06:23:06;5.80;;;4.20;;
55312;SDS011;46892;45.668;11.756;2023-05-07T06:25:31;5.57;;;3.80;;
55312;SDS011;46892;45.668;11.756;2023-05-07T06:27:57;5.23;;;3.70;;
55312;SDS011;46892;45.668;11.756;2023-05-07T06:30:22;4.83;;;3.70;;
55312;SDS011;46892;45.668;11.756;2023-05-07T06:32:48;5.57;;;4.50;;
55312;SDS011;46892;45.668;11.756;2023-05-07T06:35:14;4.23;;;3.73;;
55312;SDS011;46892;45.668;11.756;2023-05-07T06:37:40;5.50;;;3.93;;
55312;SDS011;46892;45.668;11.756;2023-05-07T06:40:07;5.27;;;3.73;;
55312;SDS011;46892;45.668;11.756;2023-05-07T06:42:33;4.60;;;3.40;;
55312;SDS011;46892;45.668;11.756;2023-05-07T06:45:00;4.90;;;3.60;;
55312;SDS011;46892;45.668;11.756;2023-05-07T06:47:26;5.10;;;3.60;;
55312;SDS011;46892;45.668;11.756;2023-05-07T06:49:51;4.63;;;3.80;;
55312;SDS011;46892;45.668;11.756;2023-05-07T06:52:17;4.90;;;3.47;;
55312;SDS011;46892;45.668;11.756;2023-05-07T06:54:43;6.43;;;3.57;;
55312;SDS011;46892;45.668;11.756;2023-05-07T06:57:08;4.50;;;3.33;;
55312;SDS011;46892;45.668;11.756;2023-05-07T06:59:34;6.50;;;4.13;;
55312;SDS011;46892;45.668;11.756;2023-05-07T07:01:59;5.30;;;4.10;;
55312;SDS011;46892;45.668;11.756;2023-05-07T07:04:25;6.90;;;4.40;;
55312;SDS011;46892;45.668;11.756;2023-05-07T07:06:54;7.97;;;3.90;;
55312;SDS011;46892;45.668;11.756;2023-05-07T07:09:19;6.73;;;3.83;;
55312;SDS011;46892;45.668;11.756;2023-05-07T07:11:45;6.13;;;4.57;;
55312;SDS011;46892;45.668;11.756;2023-05-07T07:14:11;6.50;;;4.70;;
55312;SDS011;46892;45.668;11.756;2023-05-07T07:16:36;6.63;;;4.37;;
55312;SDS011;46892;45.668;11.756;2023-05-07T07:19:02;5.27;;;4.30;;
55312;SDS011;46892;45.668;11.756;2023-05-07T07:21:28;5.10;;;3.73;;
55312;SDS011;46892;45.668;11.756;2023-05-07T07:23:53;4.77;;;3.50;;
55312;SDS011;46892;45.668;11.756;2023-05-07T07:26:19;4.03;;;3.17;;
55312;SDS011;46892;45.668;11.756;2023-05-07T07:28:45;5.53;;;3.50;;
55312;SDS011;46892;45.668;11.756;2023-05-07T07:31:11;4.33;;;3.60;;
55312;SDS011;46892;45.668;11.756;2023-05-07T07:33:37;5.60;;;4.17;;
55312;SDS011;46892;45.668;11.756;2023-05-07T07:36:04;6.77;;;3.83;;
55312;SDS011;46892;45.668;11.756;2023-05-07T07:38:30;4.67;;;3.50;;
55312;SDS011;46892;45.668;11.756;2023-05-07T07:40:56;6.87;;;5.13;;
55312;SDS011;46892;45.668;11.756;2023-05-07T07:43:22;10.03;;;7.63;;
55312;SDS011;46892;45.668;11.756;2023-05-07T07:45:47;8.77;;;7.37;;
55312;SDS011;46892;45.668;11.756;2023-05-07T07:48:13;10.13;;;6.63;;
55312;SDS011;46892;45.668;11.756;2023-05-07T07:50:39;9.57;;;6.00;;
55312;SDS011;46892;45.668;11.756;2023-05-07T07:53:04;7.37;;;5.60;;
55312;SDS011;46892;45.668;11.756;2023-05-07T07:55:30;7.30;;;6.60;;
55312;SDS011;46892;45.668;11.756;2023-05-07T07:57:57;8.87;;;7.27;;
55312;SDS011;46892;45.668;11.756;2023-05-07T08:00:22;10.50;;;9.37;;
55312;SDS011;46892;45.668;11.756;2023-05-07T08:02:48;10.27;;;8.13;;
55312;SDS011;46892;45.668;11.756;2023-05-07T08:05:14;9.80;;;8.23;;
55312;SDS011;46892;45.668;11.756;2023-05-07T08:07:41;10.90;;;8.63;;
55312;SDS011;46892;45.668;11.756;2023-05-07T08:10:07;11.47;;;9.83;;
55312;SDS011;46892;45.668;11.756;2023-05-07T08:12:33;11.73;;;9.30;;
55312;SDS011;46892;45.668;11.756;2023-05-07T08:14:59;11.13;;;9.00;;
55312;SDS011;46892;45.668;11.756;2023-05-07T08:17:24;11.70;;;8.83;;
55312;SDS011;46892;45.668;11.756;2023-05-07T08:19:50;10.50;;;8.97;;
55312;SDS011;46892;45.668;11.756;2023-05-07T08:22:16;12.13;;;8.87;;
55312;SDS011;46892;45.668;11.756;2023-05-07T08:24:43;13.47;;;9.17;;
55312;SDS011;46892;45.668;11.756;2023-05-07T08:27:09;10.40;;;8.20;;
55312;SDS011;46892;45.668;11.756;2023-05-07T08:29:35;8.60;;;7.13;;
55312;SDS011;46892;45.668;11.756;2023-05-07T08:32:00;7.70;;;6.57;;
55312;SDS011;46892;45.668;11.756;2023-05-07T08:34:26;9.40;;;8.40;;
55312;SDS011;46892;45.668;11.756;2023-05-07T08:36:52;11.83;;;9.50;;
55312;SDS011;46892;45.668;11.756;2023-05-07T08:39:18;12.97;;;9.77;;
55312;SDS011;46892;45.668;11.756;2023-05-07T08:41:44;11.53;;;8.80;;
55312;SDS011;46892;45.668;11.756;2023-05-07T08:44:11;4.13;;;2.90;;
55312;SDS011;46892;45.668;11.756;2023-05-07T08:46:39;4.53;;;3.10;;
55312;SDS011;46892;45.668;11.756;2023-05-07T08:49:06;4.30;;;2.70;;
55312;SDS011;46892;45.668;11.756;2023-05-07T08:51:32;2.83;;;2.50;;
55312;SDS011;46892;45.668;11.756;2023-05-07T08:53:59;4.50;;;2.53;;
55312;SDS011;46892;45.668;11.756;2023-05-07T08:56:26;4.20;;;2.90;;
55312;SDS011;46892;45.668;11.756;2023-05-07T08:58:52;3.17;;;2.50;;
55312;SDS011;46892;45.668;11.756;2023-05-07T09:01:21;5.40;;;2.93;;
55312;SDS011;46892;45.668;11.756;2023-05-07T09:03:47;5.07;;;2.90;;
55312;SDS011;46892;45.668;11.756;2023-05-07T09:06:13;3.90;;;2.50;;
55312;SDS011;46892;45.668;11.756;2023-05-07T09:08:39;2.90;;;2.40;;
55312;SDS011;46892;45.668;11.756;2023-05-07T09:11:05;3.73;;;2.60;;
55312;SDS011;46892;45.668;11.756;2023-05-07T09:13:30;5.00;;;3.20;;
55312;SDS011;46892;45.668;11.756;2023-05-07T09:15:56;4.00;;;3.00;;
55312;SDS011;46892;45.668;11.756;2023-05-07T09:18:25;3.50;;;2.70;;
55312;SDS011;46892;45.668;11.756;2023-05-07T09:20:51;5.07;;;2.73;;
55312;SDS011;46892;45.668;11.756;2023-05-07T09:23:16;4.20;;;2.60;;
55312;SDS011;46892;45.668;11.756;2023-05-07T09:25:42;3.83;;;2.50;;
55312;SDS011;46892;45.668;11.756;2023-05-07T09:28:07;3.47;;;2.63;;
55312;SDS011;46892;45.668;11.756;2023-05-07T09:30:35;3.20;;;2.50;;
55312;SDS011;46892;45.668;11.756;2023-05-07T09:33:01;5.77;;;3.13;;
55312;SDS011;46892;45.668;11.756;2023-05-07T09:35:29;5.73;;;2.83;;
55312;SDS011;46892;45.668;11.756;2023-05-07T09:37:55;4.40;;;3.10;;
55312;SDS011;46892;45.668;11.756;2023-05-07T09:40:26;5.23;;;3.60;;
55312;SDS011;46892;45.668;11.756;2023-05-07T09:45:36;4.93;;;3.20;;
55312;SDS011;46892;45.668;11.756;2023-05-07T09:48:02;5.43;;;3.10;;
55312;SDS011;46892;45.668;11.756;2023-05-07T09:50:38;5.37;;;3.47;;
55312;SDS011;46892;45.668;11.756;2023-05-07T09:53:13;5.88;;;3.60;;
55312;SDS011;46892;45.668;11.756;2023-05-07T09:55:41;6.23;;;3.60;;
55312;SDS011;46892;45.668;11.756;2023-05-07T09:58:07;5.97;;;4.10;;
55312;SDS011;46892;45.668;11.756;2023-05-07T10:00:34;6.32;;;3.88;;
55312;SDS011;46892;45.668;11.756;2023-05-07T10:03:01;4.13;;;3.38;;
55312;SDS011;46892;45.668;11.756;2023-05-07T10:05:27;5.57;;;3.78;;
55312;SDS011;46892;45.668;11.756;2023-05-07T10:07:53;5.75;;;3.90;;
55312;SDS011;46892;45.668;11.756;2023-05-07T10:10:20;5.77;;;4.50;;
55312;SDS011;46892;45.668;11.756;2023-05-07T10:12:47;7.33;;;4.77;;
55312;SDS011;46892;45.668;11.756;2023-05-07T10:15:13;8.57;;;5.85;;
55312;SDS011;46892;45.668;11.756;2023-05-07T10:17:39;5.67;;;4.10;;
55312;SDS011;46892;45.668;11.756;2023-05-07T10:20:06;13.15;;;8.38;;
55312;SDS011;46892;45.668;11.756;2023-05-07T10:22:37;7.67;;;4.93;;
55312;SDS011;46892;45.668;11.756;2023-05-07T10:25:09;4.80;;;3.90;;
55312;SDS011;46892;45.668;11.756;2023-05-07T10:27:43;5.55;;;4.35;;
55312;SDS011;46892;45.668;11.756;2023-05-07T10:30:26;7.32;;;4.57;;
55312;SDS011;46892;45.668;11.756;2023-05-07T10:32:56;7.00;;;4.40;;
55312;SDS011;46892;45.668;11.756;2023-05-07T10:35:31;6.45;;;4.72;;
55312;SDS011;46892;45.668;11.756;2023-05-07T10:38:00;7.03;;;5.40;;
55312;SDS011;46892;45.668;11.756;2023-05-07T10:40:27;7.65;;;4.70;;
55312;SDS011;46892;45.668;11.756;2023-05-07T10:42:56;6.30;;;4.63;;
55312;SDS011;46892;45.668;11.756;2023-05-07T10:45:24;5.72;;;4.20;;
55312;SDS011;46892;45.668;11.756;2023-05-07T10:50:35;5.53;;;4.45;;
55312;SDS011;46892;45.668;11.756;2023-05-07T10:55:47;4.95;;;3.80;;
55312;SDS011;46892;45.668;11.756;2023-05-07T11:00:59;7.03;;;4.33;;
55312;SDS011;46892;45.668;11.756;2023-05-07T11:03:25;6.30;;;4.55;;
55312;SDS011;46892;45.668;11.756;2023-05-07T11:08:52;6.85;;;4.22;;
55312;SDS011;46892;45.668;11.756;2023-05-07T11:11:19;8.55;;;6.00;;
55312;SDS011;46892;45.668;11.756;2023-05-07T11:14:05;7.55;;;5.53;;
55312;SDS011;46892;45.668;11.756;2023-05-07T11:16:31;6.72;;;5.45;;
55312;SDS011;46892;45.668;11.756;2023-05-07T11:19:00;7.22;;;5.35;;
55312;SDS011;46892;45.668;11.756;2023-05-07T11:21:36;8.63;;;6.57;;
55312;SDS011;46892;45.668;11.756;2023-05-07T11:24:03;7.40;;;5.83;;
55312;SDS011;46892;45.668;11.756;2023-05-07T11:26:31;9.50;;;6.70;;
55312;SDS011;46892;45.668;11.756;2023-05-07T11:29:41;8.75;;;6.72;;
55312;SDS011;46892;45.668;11.756;2023-05-07T11:31:59;8.33;;;6.57;;
55312;SDS011;46892;45.668;11.756;2023-05-07T11:34:26;6.93;;;5.78;;
55312;SDS011;46892;45.668;11.756;2023-05-07T11:36:52;9.97;;;7.80;;
55312;SDS011;46892;45.668;11.756;2023-05-07T11:39:28;10.60;;;7.70;;
55312;SDS011;46892;45.668;11.756;2023-05-07T11:41:58;8.82;;;6.93;;
55312;SDS011;46892;45.668;11.756;2023-05-07T11:44:24;10.33;;;7.23;;
55312;SDS011;46892;45.668;11.756;2023-05-07T11:46:50;8.68;;;6.50;;
55312;SDS011;46892;45.668;11.756;2023-05-07T11:49:16;8.70;;;7.65;;
55312;SDS011;46892;45.668;11.756;2023-05-07T11:51:42;8.85;;;7.95;;
55312;SDS011;46892;45.668;11.756;2023-05-07T11:54:08;8.63;;;7.15;;
55312;SDS011;46892;45.668;11.756;2023-05-07T11:56:36;9.45;;;6.70;;
55312;SDS011;46892;45.668;11.756;2023-05-07T11:59:02;8.05;;;7.15;;
55312;SDS011;46892;45.668;11.756;2023-05-07T12:01:28;9.48;;;7.03;;
55312;SDS011;46892;45.668;11.756;2023-05-07T12:03:53;7.88;;;6.18;;
55312;SDS011;46892;45.668;11.756;2023-05-07T12:06:19;8.82;;;7.85;;
55312;SDS011;46892;45.668;11.756;2023-05-07T12:08:45;8.90;;;7.40;;
55312;SDS011;46892;45.668;11.756;2023-05-07T12:11:15;8.43;;;6.47;;
55312;SDS011;46892;45.668;11.756;2023-05-07T12:13:43;9.43;;;7.50;;
55312;SDS011;46892;45.668;11.756;2023-05-07T12:16:09;10.25;;;8.50;;
55312;SDS011;46892;45.668;11.756;2023-05-07T12:18:35;9.88;;;7.82;;
55312;SDS011;46892;45.668;11.756;2023-05-07T12:21:02;7.50;;;6.03;;
55312;SDS011;46892;45.668;11.756;2023-05-07T12:23:29;9.38;;;7.13;;
55312;SDS011;46892;45.668;11.756;2023-05-07T12:25:55;12.90;;;7.72;;
55312;SDS011;46892;45.668;11.756;2023-05-07T12:28:20;8.23;;;6.88;;
55312;SDS011;46892;45.668;11.756;2023-05-07T12:30:47;8.35;;;6.55;;
55312;SDS011;46892;45.668;11.756;2023-05-07T12:33:18;11.73;;;8.85;;
55312;SDS011;46892;45.668;11.756;2023-05-07T12:35:48;9.93;;;7.25;;
55312;SDS011;46892;45.668;11.756;2023-05-07T12:38:15;12.18;;;8.13;;
55312;SDS011;46892;45.668;11.756;2023-05-07T12:40:43;8.90;;;7.30;;
55312;SDS011;46892;45.668;11.756;2023-05-07T12:43:25;9.63;;;8.38;;
55312;SDS011;46892;45.668;11.756;2023-05-07T12:45:55;12.98;;;10.10;;
55312;SDS011;46892;45.668;11.756;2023-05-07T12:48:30;12.25;;;9.73;;
55312;SDS011;46892;45.668;11.756;2023-05-07T12:50:57;10.95;;;8.85;;
55312;SDS011;46892;45.668;11.756;2023-05-07T12:53:25;11.60;;;9.65;;
55312;SDS011;46892;45.668;11.756;2023-05-07T12:55:52;12.07;;;9.27;;
55312;SDS011;46892;45.668;11.756;2023-05-07T12:58:26;12.85;;;10.38;;
55312;SDS011;46892;45.668;11.756;2023-05-07T13:00:58;12.55;;;9.35;;
55312;SDS011;46892;45.668;11.756;2023-05-07T13:03:29;11.40;;;9.43;;
55312;SDS011;46892;45.668;11.756;2023-05-07T13:05:57;10.40;;;9.40;;
55312;SDS011;46892;45.668;11.756;2023-05-07T13:08:36;11.75;;;8.90;;
55312;SDS011;46892;45.668;11.756;2023-05-07T13:11:06;12.25;;;9.07;;
55312;SDS011;46892;45.668;11.756;2023-05-07T13:13:34;11.30;;;8.68;;
55312;SDS011;46892;45.668;11.756;2023-05-07T13:16:01;10.05;;;8.68;;
55312;SDS011;46892;45.668;11.756;2023-05-07T13:18:31;10.10;;;8.15;;
55312;SDS011;46892;45.668;11.756;2023-05-07T13:20:58;9.98;;;8.52;;
55312;SDS011;46892;45.668;11.756;2023-05-07T13:23:24;11.13;;;9.93;;
55312;SDS011;46892;45.668;11.756;2023-05-07T13:25:50;10.50;;;8.13;;
55312;SDS011;46892;45.668;11.756;2023-05-07T13:28:17;9.88;;;8.45;;
55312;SDS011;46892;45.668;11.756;2023-05-07T13:30:43;11.30;;;7.28;;
55312;SDS011;46892;45.668;11.756;2023-05-07T13:33:09;9.13;;;7.13;;
55312;SDS011;46892;45.668;11.756;2023-05-07T13:35:35;10.20;;;7.20;;
55312;SDS011;46892;45.668;11.756;2023-05-07T13:38:00;9.63;;;7.45;;
55312;SDS011;46892;45.668;11.756;2023-05-07T13:40:26;9.02;;;7.32;;
55312;SDS011;46892;45.668;11.756;2023-05-07T13:42:53;7.13;;;6.25;;
55312;SDS011;46892;45.668;11.756;2023-05-07T13:45:19;8.93;;;6.60;;
55312;SDS011;46892;45.668;11.756;2023-05-07T13:47:45;9.40;;;7.28;;
55312;SDS011;46892;45.668;11.756;2023-05-07T13:50:11;9.30;;;6.35;;
55312;SDS011;46892;45.668;11.756;2023-05-07T13:52:39;6.80;;;5.95;;
55312;SDS011;46892;45.668;11.756;2023-05-07T13:55:07;8.65;;;6.00;;
55312;SDS011;46892;45.668;11.756;2023-05-07T13:57:33;8.40;;;6.90;;
55312;SDS011;46892;45.668;11.756;2023-05-07T13:59:58;9.68;;;5.97;;
55312;SDS011;46892;45.668;11.756;2023-05-07T14:02:24;8.70;;;6.32;;
55312;SDS011;46892;45.668;11.756;2023-05-07T14:04:49;9.18;;;6.95;;
55312;SDS011;46892;45.668;11.756;2023-05-07T14:07:15;7.88;;;6.15;;
55312;SDS011;46892;45.668;11.756;2023-05-07T14:09:41;10.13;;;8.05;;
55312;SDS011;46892;45.668;11.756;2023-05-07T14:12:06;8.02;;;6.78;;
55312;SDS011;46892;45.668;11.756;2023-05-07T14:14:32;9.18;;;6.90;;
55312;SDS011;46892;45.668;11.756;2023-05-07T14:16:58;9.77;;;8.60;;
55312;SDS011;46892;45.668;11.756;2023-05-07T14:19:23;8.80;;;7.35;;
55312;SDS011;46892;45.668;11.756;2023-05-07T14:21:49;8.57;;;7.07;;
55312;SDS011;46892;45.668;11.756;2023-05-07T14:24:14;9.88;;;7.47;;
55312;SDS011;46892;45.668;11.756;2023-05-07T14:26:40;10.43;;;9.32;;
55312;SDS011;46892;45.668;11.756;2023-05-07T14:29:06;9.88;;;8.45;;
55312;SDS011;46892;45.668;11.756;2023-05-07T14:31:31;8.43;;;6.78;;
55312;SDS011;46892;45.668;11.756;2023-05-07T14:33:58;7.95;;;6.70;;
55312;SDS011;46892;45.668;11.756;2023-05-07T14:36:24;11.13;;;8.10;;
55312;SDS011;46892;45.668;11.756;2023-05-07T14:38:51;9.98;;;8.27;;
55312;SDS011;46892;45.668;11.756;2023-05-07T14:41:18;8.93;;;8.00;;